sensor_id;sensor_type;location;lat;lon;timestamp;P1;durP1;ratioP1;P2;durP2;ratioP2
24425;SDS011;12611;44.446;26.000;2023-03-13T00:01:54;27.50;;;14.63;;
24425;SDS011;12611;44.446;26.000;2023-03-13T00:04:24;28.90;;;15.07;;
24425;SDS011;12611;44.446;26.000;2023-03-13T00:06:52;28.03;;;14.00;;
24425;SDS011;12611;44.446;26.000;2023-03-13T00:09:20;31.83;;;15.00;;
24425;SDS011;12611;44.446;26.000;2023-03-13T00:11:49;26.80;;;13.97;;
24425;SDS011;12611;44.446;26.000;2023-03-13T00:14:17;35.53;;;16.80;;
24425;SDS011;12611;44.446;26.000;2023-03-13T00:16:46;41.63;;;18.63;;
24425;SDS011;12611;44.446;26.000;2023-03-13T00:19:14;31.17;;;15.97;;
24425;SDS011;12611;44.446;26.000;2023-03-13T00:21:44;34.30;;;18.10;;
24425;SDS011;12611;44.446;26.000;2023-03-13T00:24:12;28.30;;;16.93;;
24425;SDS011;12611;44.446;26.000;2023-03-13T00:26:40;30.83;;;16.73;;
24425;SDS011;12611;44.446;26.000;2023-03-13T00:29:09;34.07;;;16.87;;
24425;SDS011;12611;44.446;26.000;2023-03-13T00:31:37;28.77;;;16.13;;
24425;SDS011;12611;44.446;26.000;2023-03-13T00:34:05;27.77;;;16.17;;
24425;SDS011;12611;44.446;26.000;2023-03-13T00:36:34;30.40;;;16.63;;
24425;SDS011;12611;44.446;26.000;2023-03-13T00:39:04;31.53;;;16.90;;
24425;SDS011;12611;44.446;26.000;2023-03-13T00:41:34;28.70;;;15.43;;
24425;SDS011;12611;44.446;26.000;2023-03-13T00:44:03;33.93;;;16.13;;
24425;SDS011;12611;44.446;26.000;2023-03-13T00:46:31;33.10;;;15.47;;
24425;SDS011;12611;44.446;26.000;2023-03-13T00:49:00;29.43;;;15.53;;
24425;SDS011;12611;44.446;26.000;2023-03-13T00:51:28;35.73;;;17.60;;
24425;SDS011;12611;44.446;26.000;2023-03-13T00:53:57;40.53;;;16.90;;
24425;SDS011;12611;44.446;26.000;2023-03-13T00:56:28;37.90;;;16.97;;
24425;SDS011;12611;44.446;26.000;2023-03-13T00:58:58;33.67;;;16.67;;
24425;SDS011;12611;44.446;26.000;2023-03-13T01:01:28;34.03;;;16.37;;
24425;SDS011;12611;44.446;26.000;2023-03-13T01:03:59;35.13;;;15.97;;
24425;SDS011;12611;44.446;26.000;2023-03-13T01:06:29;28.73;;;16.07;;
24425;SDS011;12611;44.446;26.000;2023-03-13T01:08:59;29.73;;;15.60;;
24425;SDS011;12611;44.446;26.000;2023-03-13T01:11:31;32.20;;;16.60;;
24425;SDS011;12611;44.446;26.000;2023-03-13T01:14:01;34.27;;;16.47;;
24425;SDS011;12611;44.446;26.000;2023-03-13T01:16:32;38.37;;;17.03;;
24425;SDS011;12611;44.446;26.000;2023-03-13T01:19:02;35.90;;;17.53;;
24425;SDS011;12611;44.446;26.000;2023-03-13T01:21:32;30.47;;;15.17;;
24425;SDS011;12611;44.446;26.000;2023-03-13T01:24:01;30.20;;;17.03;;
24425;SDS011;12611;44.446;26.000;2023-03-13T01:26:31;35.73;;;17.43;;
24425;SDS011;12611;44.446;26.000;2023-03-13T01:28:59;32.03;;;16.33;;
24425;SDS011;12611;44.446;26.000;2023-03-13T01:31:28;30.20;;;15.43;;
24425;SDS011;12611;44.446;26.000;2023-03-13T01:33:58;34.03;;;16.37;;
24425;SDS011;12611;44.446;26.000;2023-03-13T01:36:27;32.43;;;16.10;;
24425;SDS011;12611;44.446;26.000;2023-03-13T01:38:57;33.93;;;16.67;;
24425;SDS011;12611;44.446;26.000;2023-03-13T01:41:27;35.53;;;17.23;;
24425;SDS011;12611;44.446;26.000;2023-03-13T01:43:58;29.87;;;16.00;;
24425;SDS011;12611;44.446;26.000;2023-03-13T01:46:27;30.97;;;15.63;;
24425;SDS011;12611;44.446;26.000;2023-03-13T01:48:56;33.40;;;17.20;;
24425;SDS011;12611;44.446;26.000;2023-03-13T01:51:31;29.07;;;16.60;;
24425;SDS011;12611;44.446;26.000;2023-03-13T01:54:02;34.57;;;16.97;;
24425;SDS011;12611;44.446;26.000;2023-03-13T01:56:35;31.87;;;16.03;;
24425;SDS011;12611;44.446;26.000;2023-03-13T01:59:09;31.77;;;16.60;;
24425;SDS011;12611;44.446;26.000;2023-03-13T02:01:41;34.73;;;17.17;;
24425;SDS011;12611;44.446;26.000;2023-03-13T02:04:13;34.13;;;17.37;;
24425;SDS011;12611;44.446;26.000;2023-03-13T02:06:43;34.07;;;16.50;;
24425;SDS011;12611;44.446;26.000;2023-03-13T02:09:15;37.33;;;17.20;;
24425;SDS011;12611;44.446;26.000;2023-03-13T02:11:48;34.13;;;16.77;;
24425;SDS011;12611;44.446;26.000;2023-03-13T02:14:24;32.33;;;16.00;;
24425;SDS011;12611;44.446;26.000;2023-03-13T02:16:54;33.70;;;15.40;;
24425;SDS011;12611;44.446;26.000;2023-03-13T02:19:23;37.28;;;18.08;;
24425;SDS011;12611;44.446;26.000;2023-03-13T02:21:59;29.50;;;15.43;;
24425;SDS011;12611;44.446;26.000;2023-03-13T02:24:34;32.03;;;15.90;;
24425;SDS011;12611;44.446;26.000;2023-03-13T02:27:10;30.30;;;15.33;;
24425;SDS011;12611;44.446;26.000;2023-03-13T02:29:38;31.83;;;15.67;;
24425;SDS011;12611;44.446;26.000;2023-03-13T02:32:08;35.35;;;18.23;;
24425;SDS011;12611;44.446;26.000;2023-03-13T02:34:37;31.43;;;15.83;;
24425;SDS011;12611;44.446;26.000;2023-03-13T02:37:07;37.40;;;16.03;;
24425;SDS011;12611;44.446;26.000;2023-03-13T02:39:39;31.23;;;16.87;;
24425;SDS011;12611;44.446;26.000;2023-03-13T02:42:12;33.67;;;15.87;;
24425;SDS011;12611;44.446;26.000;2023-03-13T02:44:42;34.17;;;15.57;;
24425;SDS011;12611;44.446;26.000;2023-03-13T02:47:16;31.87;;;16.10;;
24425;SDS011;12611;44.446;26.000;2023-03-13T02:49:45;34.33;;;17.00;;
24425;SDS011;12611;44.446;26.000;2023-03-13T02:52:13;37.27;;;15.90;;
24425;SDS011;12611;44.446;26.000;2023-03-13T02:54:48;33.07;;;17.20;;
24425;SDS011;12611;44.446;26.000;2023-03-13T02:57:20;37.43;;;18.57;;
24425;SDS011;12611;44.446;26.000;2023-03-13T02:59:49;38.83;;;17.70;;
24425;SDS011;12611;44.446;26.000;2023-03-13T03:02:17;31.50;;;16.57;;
24425;SDS011;12611;44.446;26.000;2023-03-13T03:04:45;33.03;;;17.77;;
24425;SDS011;12611;44.446;26.000;2023-03-13T03:07:14;35.73;;;17.60;;
24425;SDS011;12611;44.446;26.000;2023-03-13T03:09:42;37.17;;;18.80;;
24425;SDS011;12611;44.446;26.000;2023-03-13T03:12:10;33.70;;;17.33;;
24425;SDS011;12611;44.446;26.000;2023-03-13T03:14:40;39.33;;;19.73;;
24425;SDS011;12611;44.446;26.000;2023-03-13T03:17:08;42.47;;;19.33;;
24425;SDS011;12611;44.446;26.000;2023-03-13T03:19:37;39.83;;;18.03;;
24425;SDS011;12611;44.446;26.000;2023-03-13T03:22:05;37.50;;;19.03;;
24425;SDS011;12611;44.446;26.000;2023-03-13T03:24:33;34.70;;;18.57;;
24425;SDS011;12611;44.446;26.000;2023-03-13T03:27:02;36.77;;;20.10;;
24425;SDS011;12611;44.446;26.000;2023-03-13T03:29:30;37.70;;;18.50;;
24425;SDS011;12611;44.446;26.000;2023-03-13T03:32:00;38.07;;;18.30;;
24425;SDS011;12611;44.446;26.000;2023-03-13T03:34:29;41.47;;;23.33;;
24425;SDS011;12611;44.446;26.000;2023-03-13T03:36:57;46.13;;;21.70;;
24425;SDS011;12611;44.446;26.000;2023-03-13T03:39:25;47.47;;;24.07;;
24425;SDS011;12611;44.446;26.000;2023-03-13T03:41:54;49.03;;;26.70;;
24425;SDS011;12611;44.446;26.000;2023-03-13T03:44:22;54.37;;;30.73;;
24425;SDS011;12611;44.446;26.000;2023-03-13T03:46:51;59.27;;;33.40;;
24425;SDS011;12611;44.446;26.000;2023-03-13T03:49:20;54.80;;;31.07;;
24425;SDS011;12611;44.446;26.000;2023-03-13T03:51:49;48.57;;;24.53;;
24425;SDS011;12611;44.446;26.000;2023-03-13T03:54:17;49.40;;;25.70;;
24425;SDS011;12611;44.446;26.000;2023-03-13T03:56:46;37.87;;;18.90;;
24425;SDS011;12611;44.446;26.000;2023-03-13T03:59:14;40.37;;;20.90;;
24425;SDS011;12611;44.446;26.000;2023-03-13T04:01:42;41.33;;;20.47;;
24425;SDS011;12611;44.446;26.000;2023-03-13T04:04:11;39.83;;;21.37;;
24425;SDS011;12611;44.446;26.000;2023-03-13T04:06:40;42.40;;;21.20;;
24425;SDS011;12611;44.446;26.000;2023-03-13T04:09:09;38.07;;;19.67;;
24425;SDS011;12611;44.446;26.000;2023-03-13T04:11:37;35.20;;;19.40;;
24425;SDS011;12611;44.446;26.000;2023-03-13T04:14:05;35.80;;;17.87;;
24425;SDS011;12611;44.446;26.000;2023-03-13T04:16:34;32.47;;;17.00;;
24425;SDS011;12611;44.446;26.000;2023-03-13T04:19:02;33.63;;;17.73;;
24425;SDS011;12611;44.446;26.000;2023-03-13T04:21:31;33.73;;;16.67;;
24425;SDS011;12611;44.446;26.000;2023-03-13T04:24:00;34.17;;;16.83;;
24425;SDS011;12611;44.446;26.000;2023-03-13T04:26:29;38.17;;;17.23;;
24425;SDS011;12611;44.446;26.000;2023-03-13T04:28:57;31.67;;;16.50;;
24425;SDS011;12611;44.446;26.000;2023-03-13T04:31:25;34.97;;;17.53;;
24425;SDS011;12611;44.446;26.000;2023-03-13T04:33:54;37.83;;;17.07;;
24425;SDS011;12611;44.446;26.000;2023-03-13T04:36:22;36.00;;;16.70;;
24425;SDS011;12611;44.446;26.000;2023-03-13T04:38:51;29.63;;;15.87;;
24425;SDS011;12611;44.446;26.000;2023-03-13T04:41:20;41.97;;;17.13;;
24425;SDS011;12611;44.446;26.000;2023-03-13T04:43:49;34.00;;;18.67;;
24425;SDS011;12611;44.446;26.000;2023-03-13T04:46:17;38.23;;;17.37;;
24425;SDS011;12611;44.446;26.000;2023-03-13T04:48:45;37.70;;;16.97;;
24425;SDS011;12611;44.446;26.000;2023-03-13T04:51:14;30.67;;;16.57;;
24425;SDS011;12611;44.446;26.000;2023-03-13T04:53:42;36.20;;;16.73;;
24425;SDS011;12611;44.446;26.000;2023-03-13T04:56:11;37.53;;;17.20;;
24425;SDS011;12611;44.446;26.000;2023-03-13T04:59:08;36.80;;;15.57;;
24425;SDS011;12611;44.446;26.000;2023-03-13T05:01:37;40.47;;;17.30;;
24425;SDS011;12611;44.446;26.000;2023-03-13T05:04:05;47.40;;;17.40;;
24425;SDS011;12611;44.446;26.000;2023-03-13T05:06:34;37.27;;;17.20;;
24425;SDS011;12611;44.446;26.000;2023-03-13T05:09:03;29.93;;;15.63;;
24425;SDS011;12611;44.446;26.000;2023-03-13T05:11:32;37.53;;;17.70;;
24425;SDS011;12611;44.446;26.000;2023-03-13T05:14:01;31.67;;;17.30;;
24425;SDS011;12611;44.446;26.000;2023-03-13T05:16:31;34.07;;;17.77;;
24425;SDS011;12611;44.446;26.000;2023-03-13T05:18:59;34.83;;;17.07;;
24425;SDS011;12611;44.446;26.000;2023-03-13T05:21:28;46.40;;;18.20;;
24425;SDS011;12611;44.446;26.000;2023-03-13T05:23:56;37.40;;;20.53;;
24425;SDS011;12611;44.446;26.000;2023-03-13T05:26:24;40.23;;;19.33;;
24425;SDS011;12611;44.446;26.000;2023-03-13T05:28:53;41.63;;;19.53;;
24425;SDS011;12611;44.446;26.000;2023-03-13T05:31:21;37.87;;;20.43;;
24425;SDS011;12611;44.446;26.000;2023-03-13T05:33:51;37.67;;;18.57;;
24425;SDS011;12611;44.446;26.000;2023-03-13T05:36:19;34.70;;;18.30;;
24425;SDS011;12611;44.446;26.000;2023-03-13T05:38:47;43.47;;;20.93;;
24425;SDS011;12611;44.446;26.000;2023-03-13T05:41:16;38.63;;;20.70;;
24425;SDS011;12611;44.446;26.000;2023-03-13T05:43:44;42.13;;;21.07;;
24425;SDS011;12611;44.446;26.000;2023-03-13T05:46:12;43.13;;;20.63;;
24425;SDS011;12611;44.446;26.000;2023-03-13T05:48:41;44.27;;;20.47;;
24425;SDS011;12611;44.446;26.000;2023-03-13T05:51:12;37.93;;;19.57;;
24425;SDS011;12611;44.446;26.000;2023-03-13T05:53:40;40.67;;;20.17;;
24425;SDS011;12611;44.446;26.000;2023-03-13T05:56:09;36.63;;;19.97;;
24425;SDS011;12611;44.446;26.000;2023-03-13T05:58:37;38.10;;;20.50;;
24425;SDS011;12611;44.446;26.000;2023-03-13T06:01:06;35.57;;;21.03;;
24425;SDS011;12611;44.446;26.000;2023-03-13T06:03:35;47.10;;;22.03;;
24425;SDS011;12611;44.446;26.000;2023-03-13T06:06:04;39.37;;;20.57;;
24425;SDS011;12611;44.446;26.000;2023-03-13T06:08:34;38.53;;;21.97;;
24425;SDS011;12611;44.446;26.000;2023-03-13T06:11:02;38.87;;;21.00;;
24425;SDS011;12611;44.446;26.000;2023-03-13T06:13:31;44.10;;;23.17;;
24425;SDS011;12611;44.446;26.000;2023-03-13T06:15:59;41.13;;;22.93;;
24425;SDS011;12611;44.446;26.000;2023-03-13T06:18:28;38.47;;;20.50;;
24425;SDS011;12611;44.446;26.000;2023-03-13T06:20:56;40.17;;;20.63;;
24425;SDS011;12611;44.446;26.000;2023-03-13T06:23:26;42.10;;;21.07;;
24425;SDS011;12611;44.446;26.000;2023-03-13T06:25:56;36.43;;;17.37;;
24425;SDS011;12611;44.446;26.000;2023-03-13T06:28:24;40.50;;;19.83;;
24425;SDS011;12611;44.446;26.000;2023-03-13T06:30:53;35.80;;;18.30;;
24425;SDS011;12611;44.446;26.000;2023-03-13T06:33:21;30.87;;;14.93;;
24425;SDS011;12611;44.446;26.000;2023-03-13T06:35:50;30.67;;;17.17;;
24425;SDS011;12611;44.446;26.000;2023-03-13T06:38:22;33.53;;;17.67;;
24425;SDS011;12611;44.446;26.000;2023-03-13T06:40:51;34.90;;;16.53;;
24425;SDS011;12611;44.446;26.000;2023-03-13T06:43:20;28.70;;;18.07;;
24425;SDS011;12611;44.446;26.000;2023-03-13T06:45:49;31.43;;;17.97;;
24425;SDS011;12611;44.446;26.000;2023-03-13T06:48:18;34.33;;;16.23;;
24425;SDS011;12611;44.446;26.000;2023-03-13T06:50:48;37.27;;;17.70;;
24425;SDS011;12611;44.446;26.000;2023-03-13T06:53:17;29.47;;;16.30;;
24425;SDS011;12611;44.446;26.000;2023-03-13T06:55:47;26.07;;;15.17;;
24425;SDS011;12611;44.446;26.000;2023-03-13T06:58:15;28.03;;;15.93;;
24425;SDS011;12611;44.446;26.000;2023-03-13T07:00:59;28.93;;;15.73;;
24425;SDS011;12611;44.446;26.000;2023-03-13T07:03:32;26.83;;;14.03;;
24425;SDS011;12611;44.446;26.000;2023-03-13T07:06:00;23.03;;;13.13;;
24425;SDS011;12611;44.446;26.000;2023-03-13T07:08:30;25.53;;;13.50;;
24425;SDS011;12611;44.446;26.000;2023-03-13T07:10:59;22.40;;;12.03;;
24425;SDS011;12611;44.446;26.000;2023-03-13T07:13:29;25.47;;;10.90;;
24425;SDS011;12611;44.446;26.000;2023-03-13T07:16:00;21.37;;;10.40;;
24425;SDS011;12611;44.446;26.000;2023-03-13T07:18:29;22.27;;;11.23;;
24425;SDS011;12611;44.446;26.000;2023-03-13T07:20:58;20.37;;;11.83;;
24425;SDS011;12611;44.446;26.000;2023-03-13T07:23:31;24.13;;;11.93;;
24425;SDS011;12611;44.446;26.000;2023-03-13T07:26:01;22.23;;;11.17;;
24425;SDS011;12611;44.446;26.000;2023-03-13T07:28:31;26.00;;;11.17;;
24425;SDS011;12611;44.446;26.000;2023-03-13T07:31:05;23.73;;;11.07;;
24425;SDS011;12611;44.446;26.000;2023-03-13T07:33:34;21.20;;;11.40;;
24425;SDS011;12611;44.446;26.000;2023-03-13T07:36:03;22.30;;;11.03;;
24425;SDS011;12611;44.446;26.000;2023-03-13T07:38:32;21.70;;;10.23;;
24425;SDS011;12611;44.446;26.000;2023-03-13T07:41:00;19.00;;;10.27;;
24425;SDS011;12611;44.446;26.000;2023-03-13T07:43:29;23.40;;;11.40;;
24425;SDS011;12611;44.446;26.000;2023-03-13T07:45:58;15.90;;;9.13;;
24425;SDS011;12611;44.446;26.000;2023-03-13T07:48:29;16.83;;;9.77;;
24425;SDS011;12611;44.446;26.000;2023-03-13T07:50:59;16.50;;;10.27;;
24425;SDS011;12611;44.446;26.000;2023-03-13T07:53:28;18.93;;;11.23;;
24425;SDS011;12611;44.446;26.000;2023-03-13T07:55:57;16.03;;;9.97;;
24425;SDS011;12611;44.446;26.000;2023-03-13T07:58:28;16.73;;;9.57;;
24425;SDS011;12611;44.446;26.000;2023-03-13T08:00:57;18.00;;;9.33;;
24425;SDS011;12611;44.446;26.000;2023-03-13T08:03:26;16.53;;;9.37;;
24425;SDS011;12611;44.446;26.000;2023-03-13T08:05:57;19.23;;;9.60;;
24425;SDS011;12611;44.446;26.000;2023-03-13T08:08:26;18.97;;;8.87;;
24425;SDS011;12611;44.446;26.000;2023-03-13T08:10:58;18.37;;;8.13;;
24425;SDS011;12611;44.446;26.000;2023-03-13T08:13:27;17.87;;;9.17;;
24425;SDS011;12611;44.446;26.000;2023-03-13T08:16:03;18.20;;;10.10;;
24425;SDS011;12611;44.446;26.000;2023-03-13T08:18:34;18.33;;;8.40;;
24425;SDS011;12611;44.446;26.000;2023-03-13T08:21:05;16.17;;;8.93;;
24425;SDS011;12611;44.446;26.000;2023-03-13T08:23:35;11.83;;;7.43;;
24425;SDS011;12611;44.446;26.000;2023-03-13T08:26:04;14.73;;;7.93;;
24425;SDS011;12611;44.446;26.000;2023-03-13T08:28:33;16.20;;;8.43;;
24425;SDS011;12611;44.446;26.000;2023-03-13T08:31:06;21.17;;;8.70;;
24425;SDS011;12611;44.446;26.000;2023-03-13T08:33:37;17.43;;;8.43;;
24425;SDS011;12611;44.446;26.000;2023-03-13T08:36:13;16.90;;;7.80;;
24425;SDS011;12611;44.446;26.000;2023-03-13T08:38:44;18.93;;;9.20;;
24425;SDS011;12611;44.446;26.000;2023-03-13T08:41:13;13.13;;;8.33;;
24425;SDS011;12611;44.446;26.000;2023-03-13T08:43:43;14.40;;;7.63;;
24425;SDS011;12611;44.446;26.000;2023-03-13T08:46:12;16.23;;;8.50;;
24425;SDS011;12611;44.446;26.000;2023-03-13T08:48:47;17.97;;;7.77;;
24425;SDS011;12611;44.446;26.000;2023-03-13T08:51:16;13.10;;;7.17;;
24425;SDS011;12611;44.446;26.000;2023-03-13T08:53:48;14.00;;;7.10;;
24425;SDS011;12611;44.446;26.000;2023-03-13T08:56:19;12.40;;;7.30;;
24425;SDS011;12611;44.446;26.000;2023-03-13T08:58:48;17.87;;;8.53;;
24425;SDS011;12611;44.446;26.000;2023-03-13T09:01:17;16.53;;;7.43;;
24425;SDS011;12611;44.446;26.000;2023-03-13T09:03:48;13.60;;;7.03;;
24425;SDS011;12611;44.446;26.000;2023-03-13T09:06:16;13.73;;;8.03;;
24425;SDS011;12611;44.446;26.000;2023-03-13T09:08:45;13.30;;;8.10;;
24425;SDS011;12611;44.446;26.000;2023-03-13T09:11:14;12.40;;;7.43;;
24425;SDS011;12611;44.446;26.000;2023-03-13T09:13:45;11.30;;;7.27;;
24425;SDS011;12611;44.446;26.000;2023-03-13T09:16:15;15.20;;;7.80;;
24425;SDS011;12611;44.446;26.000;2023-03-13T09:18:45;15.47;;;8.10;;
24425;SDS011;12611;44.446;26.000;2023-03-13T09:21:16;12.80;;;7.07;;
24425;SDS011;12611;44.446;26.000;2023-03-13T09:23:46;13.90;;;7.90;;
24425;SDS011;12611;44.446;26.000;2023-03-13T09:26:15;10.20;;;5.03;;
24425;SDS011;12611;44.446;26.000;2023-03-13T09:28:47;12.83;;;6.03;;
24425;SDS011;12611;44.446;26.000;2023-03-13T09:31:17;11.13;;;6.33;;
24425;SDS011;12611;44.446;26.000;2023-03-13T09:33:47;12.53;;;6.40;;
24425;SDS011;12611;44.446;26.000;2023-03-13T09:36:18;12.53;;;6.60;;
24425;SDS011;12611;44.446;26.000;2023-03-13T09:38:48;14.17;;;5.63;;
24425;SDS011;12611;44.446;26.000;2023-03-13T09:41:21;11.33;;;6.17;;
24425;SDS011;12611;44.446;26.000;2023-03-13T09:43:53;11.33;;;6.47;;
24425;SDS011;12611;44.446;26.000;2023-03-13T09:46:30;10.03;;;6.30;;
24425;SDS011;12611;44.446;26.000;2023-03-13T09:49:06;8.77;;;5.00;;
24425;SDS011;12611;44.446;26.000;2023-03-13T09:51:45;9.73;;;5.53;;
24425;SDS011;12611;44.446;26.000;2023-03-13T09:54:21;11.77;;;7.17;;
24425;SDS011;12611;44.446;26.000;2023-03-13T09:56:53;8.10;;;4.33;;
24425;SDS011;12611;44.446;26.000;2023-03-13T09:59:26;8.97;;;4.50;;
24425;SDS011;12611;44.446;26.000;2023-03-13T10:01:59;6.07;;;3.40;;
24425;SDS011;12611;44.446;26.000;2023-03-13T10:04:31;7.43;;;3.60;;
24425;SDS011;12611;44.446;26.000;2023-03-13T10:07:11;9.63;;;4.77;;
24425;SDS011;12611;44.446;26.000;2023-03-13T10:09:40;9.97;;;5.23;;
24425;SDS011;12611;44.446;26.000;2023-03-13T10:12:11;7.73;;;4.43;;
24425;SDS011;12611;44.446;26.000;2023-03-13T10:14:48;7.67;;;4.10;;
24425;SDS011;12611;44.446;26.000;2023-03-13T10:17:38;6.20;;;3.53;;
24425;SDS011;12611;44.446;26.000;2023-03-13T10:20:11;6.53;;;3.50;;
24425;SDS011;12611;44.446;26.000;2023-03-13T10:22:49;7.63;;;4.57;;
24425;SDS011;12611;44.446;26.000;2023-03-13T10:25:24;8.47;;;3.43;;
24425;SDS011;12611;44.446;26.000;2023-03-13T10:27:56;5.90;;;3.30;;
24425;SDS011;12611;44.446;26.000;2023-03-13T10:30:26;5.40;;;3.37;;
24425;SDS011;12611;44.446;26.000;2023-03-13T10:32:57;8.27;;;3.17;;
24425;SDS011;12611;44.446;26.000;2023-03-13T10:35:31;4.87;;;3.30;;
24425;SDS011;12611;44.446;26.000;2023-03-13T10:38:04;5.90;;;3.83;;
24425;SDS011;12611;44.446;26.000;2023-03-13T10:40:33;10.40;;;3.47;;
24425;SDS011;12611;44.446;26.000;2023-03-13T10:43:03;7.00;;;2.90;;
24425;SDS011;12611;44.446;26.000;2023-03-13T10:45:34;7.33;;;2.80;;
24425;SDS011;12611;44.446;26.000;2023-03-13T10:48:09;4.10;;;2.67;;
24425;SDS011;12611;44.446;26.000;2023-03-13T10:50:40;6.83;;;3.37;;
24425;SDS011;12611;44.446;26.000;2023-03-13T10:53:23;7.63;;;3.40;;
24425;SDS011;12611;44.446;26.000;2023-03-13T10:55:59;5.07;;;3.43;;
24425;SDS011;12611;44.446;26.000;2023-03-13T10:58:36;7.53;;;3.67;;
24425;SDS011;12611;44.446;26.000;2023-03-13T11:01:13;5.90;;;3.37;;
24425;SDS011;12611;44.446;26.000;2023-03-13T11:03:44;8.43;;;3.93;;
24425;SDS011;12611;44.446;26.000;2023-03-13T11:06:24;4.90;;;3.00;;
24425;SDS011;12611;44.446;26.000;2023-03-13T11:08:59;8.83;;;3.47;;
24425;SDS011;12611;44.446;26.000;2023-03-13T11:11:30;7.17;;;3.57;;
24425;SDS011;12611;44.446;26.000;2023-03-13T11:14:12;5.10;;;3.50;;
24425;SDS011;12611;44.446;26.000;2023-03-13T11:16:45;4.87;;;3.23;;
24425;SDS011;12611;44.446;26.000;2023-03-13T11:19:27;9.63;;;3.97;;
24425;SDS011;12611;44.446;26.000;2023-03-13T11:22:18;9.30;;;3.73;;
24425;SDS011;12611;44.446;26.000;2023-03-13T11:24:59;7.83;;;3.50;;
24425;SDS011;12611;44.446;26.000;2023-03-13T11:27:34;10.17;;;3.33;;
24425;SDS011;12611;44.446;26.000;2023-03-13T11:30:07;6.30;;;3.70;;
24425;SDS011;12611;44.446;26.000;2023-03-13T11:32:50;5.20;;;2.90;;
24425;SDS011;12611;44.446;26.000;2023-03-13T11:35:26;4.60;;;3.00;;
24425;SDS011;12611;44.446;26.000;2023-03-13T11:38:06;4.53;;;2.87;;
24425;SDS011;12611;44.446;26.000;2023-03-13T11:40:38;5.80;;;3.03;;
24425;SDS011;12611;44.446;26.000;2023-03-13T11:43:16;4.57;;;2.80;;
24425;SDS011;12611;44.446;26.000;2023-03-13T11:46:01;7.30;;;3.43;;
24425;SDS011;12611;44.446;26.000;2023-03-13T11:48:50;6.07;;;2.57;;
24425;SDS011;12611;44.446;26.000;2023-03-13T11:51:46;5.57;;;3.10;;
24425;SDS011;12611;44.446;26.000;2023-03-13T11:54:46;4.87;;;2.87;;
24425;SDS011;12611;44.446;26.000;2023-03-13T11:57:27;5.70;;;3.07;;
24425;SDS011;12611;44.446;26.000;2023-03-13T12:00:02;4.77;;;2.63;;
24425;SDS011;12611;44.446;26.000;2023-03-13T12:02:52;4.90;;;3.03;;
24425;SDS011;12611;44.446;26.000;2023-03-13T12:05:25;7.73;;;2.90;;
24425;SDS011;12611;44.446;26.000;2023-03-13T12:07:58;7.20;;;2.70;;
24425;SDS011;12611;44.446;26.000;2023-03-13T12:10:32;4.57;;;2.83;;
24425;SDS011;12611;44.446;26.000;2023-03-13T12:13:09;5.10;;;2.40;;
24425;SDS011;12611;44.446;26.000;2023-03-13T12:15:44;4.27;;;2.60;;
24425;SDS011;12611;44.446;26.000;2023-03-13T12:18:17;4.80;;;3.10;;
24425;SDS011;12611;44.446;26.000;2023-03-13T12:20:51;4.47;;;2.70;;
24425;SDS011;12611;44.446;26.000;2023-03-13T12:23:25;4.03;;;2.20;;
24425;SDS011;12611;44.446;26.000;2023-03-13T12:25:59;4.17;;;2.47;;
24425;SDS011;12611;44.446;26.000;2023-03-13T12:28:36;12.60;;;3.23;;
24425;SDS011;12611;44.446;26.000;2023-03-13T12:31:15;8.10;;;3.20;;
24425;SDS011;12611;44.446;26.000;2023-03-13T12:33:51;5.47;;;3.00;;
24425;SDS011;12611;44.446;26.000;2023-03-13T12:36:25;12.20;;;3.20;;
24425;SDS011;12611;44.446;26.000;2023-03-13T12:38:57;5.50;;;2.20;;
24425;SDS011;12611;44.446;26.000;2023-03-13T12:41:37;4.37;;;2.50;;
24425;SDS011;12611;44.446;26.000;2023-03-13T12:44:10;3.03;;;2.13;;
24425;SDS011;12611;44.446;26.000;2023-03-13T12:46:44;7.07;;;2.60;;
24425;SDS011;12611;44.446;26.000;2023-03-13T12:55:28;9.03;;;2.37;;
24425;SDS011;12611;44.446;26.000;2023-03-13T12:58:20;4.80;;;2.67;;
24425;SDS011;12611;44.446;26.000;2023-03-13T13:01:09;5.50;;;2.30;;
24425;SDS011;12611;44.446;26.000;2023-03-13T13:03:47;4.67;;;2.40;;
24425;SDS011;12611;44.446;26.000;2023-03-13T13:06:19;3.93;;;2.10;;
24425;SDS011;12611;44.446;26.000;2023-03-13T13:08:49;6.40;;;2.33;;
24425;SDS011;12611;44.446;26.000;2023-03-13T13:11:43;5.80;;;2.53;;
24425;SDS011;12611;44.446;26.000;2023-03-13T13:32:30;6.18;;;2.78;;
24425;SDS011;12611;44.446;26.000;2023-03-13T13:35:10;5.25;;;2.38;;
24425;SDS011;12611;44.446;26.000;2023-03-13T13:38:19;4.05;;;2.30;;
24425;SDS011;12611;44.446;26.000;2023-03-13T13:44:18;67.30;;;10.25;;
24425;SDS011;12611;44.446;26.000;2023-03-13T13:46:50;5.90;;;2.53;;
24425;SDS011;12611;44.446;26.000;2023-03-13T13:49:20;3.05;;;2.03;;
24425;SDS011;12611;44.446;26.000;2023-03-13T13:58:12;4.20;;;2.35;;
24425;SDS011;12611;44.446;26.000;2023-03-13T14:00:45;4.97;;;2.50;;
24425;SDS011;12611;44.446;26.000;2023-03-13T14:03:20;3.55;;;2.13;;
24425;SDS011;12611;44.446;26.000;2023-03-13T14:05:51;5.68;;;2.25;;
24425;SDS011;12611;44.446;26.000;2023-03-13T14:08:23;7.32;;;2.88;;
24425;SDS011;12611;44.446;26.000;2023-03-13T14:11:06;3.25;;;2.47;;
24425;SDS011;12611;44.446;26.000;2023-03-13T14:16:42;6.28;;;2.40;;
24425;SDS011;12611;44.446;26.000;2023-03-13T14:19:23;6.15;;;2.60;;
24425;SDS011;12611;44.446;26.000;2023-03-13T14:21:58;5.50;;;2.28;;
24425;SDS011;12611;44.446;26.000;2023-03-13T14:24:27;4.70;;;2.30;;
24425;SDS011;12611;44.446;26.000;2023-03-13T14:26:57;3.38;;;2.00;;
24425;SDS011;12611;44.446;26.000;2023-03-13T14:29:26;4.93;;;2.17;;
24425;SDS011;12611;44.446;26.000;2023-03-13T14:31:55;3.95;;;2.33;;
24425;SDS011;12611;44.446;26.000;2023-03-13T14:34:26;6.63;;;2.70;;
24425;SDS011;12611;44.446;26.000;2023-03-13T14:36:58;4.18;;;2.53;;
24425;SDS011;12611;44.446;26.000;2023-03-13T14:39:43;5.53;;;2.40;;
24425;SDS011;12611;44.446;26.000;2023-03-13T14:42:16;3.53;;;2.40;;
24425;SDS011;12611;44.446;26.000;2023-03-13T14:44:45;6.18;;;2.75;;
24425;SDS011;12611;44.446;26.000;2023-03-13T14:47:18;4.40;;;2.28;;
24425;SDS011;12611;44.446;26.000;2023-03-13T14:49:54;6.63;;;2.67;;
24425;SDS011;12611;44.446;26.000;2023-03-13T14:52:25;3.83;;;2.00;;
24425;SDS011;12611;44.446;26.000;2023-03-13T14:54:55;4.75;;;2.28;;
24425;SDS011;12611;44.446;26.000;2023-03-13T14:57:29;5.10;;;2.58;;
24425;SDS011;12611;44.446;26.000;2023-03-13T15:06:01;6.07;;;2.22;;
24425;SDS011;12611;44.446;26.000;2023-03-13T15:08:47;3.80;;;2.13;;
24425;SDS011;12611;44.446;26.000;2023-03-13T15:11:34;4.15;;;2.50;;
24425;SDS011;12611;44.446;26.000;2023-03-13T15:17:03;6.68;;;2.78;;
24425;SDS011;12611;44.446;26.000;2023-03-13T15:19:41;4.70;;;3.03;;
24425;SDS011;12611;44.446;26.000;2023-03-13T15:22:11;8.00;;;2.40;;
24425;SDS011;12611;44.446;26.000;2023-03-13T15:24:40;4.80;;;2.43;;
24425;SDS011;12611;44.446;26.000;2023-03-13T15:27:29;6.80;;;2.63;;
24425;SDS011;12611;44.446;26.000;2023-03-13T15:30:01;3.33;;;2.00;;
24425;SDS011;12611;44.446;26.000;2023-03-13T15:32:31;6.30;;;2.33;;